sensor_id;sensor_type;location;lat;lon;timestamp;P1;durP1;ratioP1;P2;durP2;ratioP2
19253;SDS011;9761;50.926;5.330;2022-11-20T00:01:27;21.67;;;12.33;;
19253;SDS011;9761;50.926;5.330;2022-11-20T00:03:55;19.83;;;13.37;;
19253;SDS011;9761;50.926;5.330;2022-11-20T00:06:23;21.20;;;13.87;;
19253;SDS011;9761;50.926;5.330;2022-11-20T00:08:54;17.93;;;12.80;;
19253;SDS011;9761;50.926;5.330;2022-11-20T00:11:29;23.97;;;15.47;;
19253;SDS011;9761;50.926;5.330;2022-11-20T00:13:58;22.80;;;13.83;;
19253;SDS011;9761;50.926;5.330;2022-11-20T00:16:27;21.20;;;14.03;;
19253;SDS011;9761;50.926;5.330;2022-11-20T00:18:56;24.17;;;15.13;;
19253;SDS011;9761;50.926;5.330;2022-11-20T00:21:25;21.13;;;14.23;;
19253;SDS011;9761;50.926;5.330;2022-11-20T00:23:54;21.43;;;13.57;;
19253;SDS011;9761;50.926;5.330;2022-11-20T00:26:25;22.77;;;14.77;;
19253;SDS011;9761;50.926;5.330;2022-11-20T00:28:55;23.43;;;14.70;;
19253;SDS011;9761;50.926;5.330;2022-11-20T00:31:25;21.17;;;13.70;;
19253;SDS011;9761;50.926;5.330;2022-11-20T00:33:53;22.77;;;14.27;;
19253;SDS011;9761;50.926;5.330;2022-11-20T00:36:21;24.53;;;14.00;;
19253;SDS011;9761;50.926;5.330;2022-11-20T00:38:50;25.77;;;15.30;;
19253;SDS011;9761;50.926;5.330;2022-11-20T00:41:18;25.10;;;15.13;;
19253;SDS011;9761;50.926;5.330;2022-11-20T00:43:46;22.90;;;14.67;;
19253;SDS011;9761;50.926;5.330;2022-11-20T00:46:15;22.27;;;14.47;;
19253;SDS011;9761;50.926;5.330;2022-11-20T00:48:44;22.27;;;14.53;;
19253;SDS011;9761;50.926;5.330;2022-11-20T00:51:12;23.53;;;14.53;;
19253;SDS011;9761;50.926;5.330;2022-11-20T00:53:41;24.13;;;15.23;;
19253;SDS011;9761;50.926;5.330;2022-11-20T00:56:10;23.77;;;15.03;;
19253;SDS011;9761;50.926;5.330;2022-11-20T00:58:38;25.10;;;14.60;;
19253;SDS011;9761;50.926;5.330;2022-11-20T01:01:09;22.03;;;14.50;;
19253;SDS011;9761;50.926;5.330;2022-11-20T01:03:39;21.77;;;15.03;;
19253;SDS011;9761;50.926;5.330;2022-11-20T01:06:09;23.53;;;14.73;;
19253;SDS011;9761;50.926;5.330;2022-11-20T01:08:37;21.53;;;14.57;;
19253;SDS011;9761;50.926;5.330;2022-11-20T01:11:06;22.40;;;14.17;;
19253;SDS011;9761;50.926;5.330;2022-11-20T01:13:37;23.53;;;15.80;;
19253;SDS011;9761;50.926;5.330;2022-11-20T01:16:06;20.60;;;13.67;;
19253;SDS011;9761;50.926;5.330;2022-11-20T01:18:36;23.90;;;15.83;;
19253;SDS011;9761;50.926;5.330;2022-11-20T01:21:06;19.73;;;14.47;;
19253;SDS011;9761;50.926;5.330;2022-11-20T01:23:35;23.43;;;14.67;;
19253;SDS011;9761;50.926;5.330;2022-11-20T01:26:06;24.07;;;14.53;;
19253;SDS011;9761;50.926;5.330;2022-11-20T01:28:34;24.87;;;14.57;;
19253;SDS011;9761;50.926;5.330;2022-11-20T01:31:02;21.70;;;15.67;;
19253;SDS011;9761;50.926;5.330;2022-11-20T01:33:39;21.93;;;13.77;;
19253;SDS011;9761;50.926;5.330;2022-11-20T01:36:07;21.33;;;14.40;;
19253;SDS011;9761;50.926;5.330;2022-11-20T01:38:35;22.33;;;14.23;;
19253;SDS011;9761;50.926;5.330;2022-11-20T01:41:03;21.47;;;14.17;;
19253;SDS011;9761;50.926;5.330;2022-11-20T01:43:30;23.40;;;14.47;;
19253;SDS011;9761;50.926;5.330;2022-11-20T01:48:43;23.10;;;14.63;;
19253;SDS011;9761;50.926;5.330;2022-11-20T01:51:17;22.27;;;15.10;;
19253;SDS011;9761;50.926;5.330;2022-11-20T01:53:49;21.13;;;14.33;;
19253;SDS011;9761;50.926;5.330;2022-11-20T01:56:19;22.93;;;15.13;;
19253;SDS011;9761;50.926;5.330;2022-11-20T01:58:48;23.80;;;15.20;;
19253;SDS011;9761;50.926;5.330;2022-11-20T02:01:19;22.77;;;14.33;;
19253;SDS011;9761;50.926;5.330;2022-11-20T02:03:48;23.37;;;14.50;;
19253;SDS011;9761;50.926;5.330;2022-11-20T02:06:19;22.67;;;14.80;;
19253;SDS011;9761;50.926;5.330;2022-11-20T02:08:50;24.00;;;14.77;;
19253;SDS011;9761;50.926;5.330;2022-11-20T02:11:18;22.80;;;14.53;;
19253;SDS011;9761;50.926;5.330;2022-11-20T02:13:45;20.53;;;13.73;;
19253;SDS011;9761;50.926;5.330;2022-11-20T02:16:15;20.03;;;13.90;;
19253;SDS011;9761;50.926;5.330;2022-11-20T02:18:46;22.13;;;14.00;;
19253;SDS011;9761;50.926;5.330;2022-11-20T02:21:17;20.97;;;14.73;;
19253;SDS011;9761;50.926;5.330;2022-11-20T02:24:03;23.40;;;14.47;;
19253;SDS011;9761;50.926;5.330;2022-11-20T02:26:33;20.53;;;13.97;;
19253;SDS011;9761;50.926;5.330;2022-11-20T02:29:05;24.27;;;14.03;;
19253;SDS011;9761;50.926;5.330;2022-11-20T02:31:35;20.97;;;13.63;;
19253;SDS011;9761;50.926;5.330;2022-11-20T02:34:04;18.57;;;13.40;;
19253;SDS011;9761;50.926;5.330;2022-11-20T02:36:31;23.43;;;14.30;;
19253;SDS011;9761;50.926;5.330;2022-11-20T02:39:03;26.50;;;15.47;;
19253;SDS011;9761;50.926;5.330;2022-11-20T02:41:31;22.70;;;13.90;;
19253;SDS011;9761;50.926;5.330;2022-11-20T02:43:59;23.37;;;14.83;;
19253;SDS011;9761;50.926;5.330;2022-11-20T02:46:27;27.57;;;14.17;;
19253;SDS011;9761;50.926;5.330;2022-11-20T02:48:54;22.40;;;14.00;;
19253;SDS011;9761;50.926;5.330;2022-11-20T02:51:21;25.23;;;15.07;;
19253;SDS011;9761;50.926;5.330;2022-11-20T02:53:50;19.93;;;13.03;;
19253;SDS011;9761;50.926;5.330;2022-11-20T02:56:18;21.27;;;13.77;;
19253;SDS011;9761;50.926;5.330;2022-11-20T02:58:46;21.50;;;14.47;;
19253;SDS011;9761;50.926;5.330;2022-11-20T03:01:14;20.77;;;14.13;;
19253;SDS011;9761;50.926;5.330;2022-11-20T03:03:41;21.53;;;13.07;;
19253;SDS011;9761;50.926;5.330;2022-11-20T03:06:08;20.20;;;13.87;;
19253;SDS011;9761;50.926;5.330;2022-11-20T03:08:35;23.07;;;15.43;;
19253;SDS011;9761;50.926;5.330;2022-11-20T03:11:05;21.33;;;14.27;;
19253;SDS011;9761;50.926;5.330;2022-11-20T03:13:35;25.87;;;14.90;;
19253;SDS011;9761;50.926;5.330;2022-11-20T03:16:07;21.87;;;13.23;;
19253;SDS011;9761;50.926;5.330;2022-11-20T03:18:38;22.37;;;14.90;;
19253;SDS011;9761;50.926;5.330;2022-11-20T03:21:06;20.13;;;13.63;;
19253;SDS011;9761;50.926;5.330;2022-11-20T03:23:36;23.37;;;13.73;;
19253;SDS011;9761;50.926;5.330;2022-11-20T03:26:07;21.93;;;13.73;;
19253;SDS011;9761;50.926;5.330;2022-11-20T03:28:39;20.60;;;14.23;;
19253;SDS011;9761;50.926;5.330;2022-11-20T03:31:12;21.30;;;13.80;;
19253;SDS011;9761;50.926;5.330;2022-11-20T03:33:40;23.53;;;13.77;;
19253;SDS011;9761;50.926;5.330;2022-11-20T03:36:10;21.47;;;14.50;;
19253;SDS011;9761;50.926;5.330;2022-11-20T03:38:39;17.83;;;13.97;;
19253;SDS011;9761;50.926;5.330;2022-11-20T03:41:09;22.97;;;13.43;;
19253;SDS011;9761;50.926;5.330;2022-11-20T03:43:40;21.20;;;14.10;;
19253;SDS011;9761;50.926;5.330;2022-11-20T03:46:07;22.00;;;14.10;;
19253;SDS011;9761;50.926;5.330;2022-11-20T03:48:34;23.87;;;15.37;;
19253;SDS011;9761;50.926;5.330;2022-11-20T03:51:08;20.10;;;13.77;;
19253;SDS011;9761;50.926;5.330;2022-11-20T03:53:37;21.03;;;13.93;;
19253;SDS011;9761;50.926;5.330;2022-11-20T03:56:05;20.23;;;14.00;;
19253;SDS011;9761;50.926;5.330;2022-11-20T03:58:33;24.10;;;14.97;;
19253;SDS011;9761;50.926;5.330;2022-11-20T04:01:06;22.07;;;14.13;;
19253;SDS011;9761;50.926;5.330;2022-11-20T04:03:36;24.63;;;14.67;;
19253;SDS011;9761;50.926;5.330;2022-11-20T04:06:05;23.07;;;15.27;;
19253;SDS011;9761;50.926;5.330;2022-11-20T04:08:36;21.53;;;15.10;;
19253;SDS011;9761;50.926;5.330;2022-11-20T04:11:10;28.73;;;14.93;;
19253;SDS011;9761;50.926;5.330;2022-11-20T04:13:38;29.37;;;16.37;;
19253;SDS011;9761;50.926;5.330;2022-11-20T04:16:08;24.90;;;15.67;;
19253;SDS011;9761;50.926;5.330;2022-11-20T04:18:36;29.13;;;15.83;;
19253;SDS011;9761;50.926;5.330;2022-11-20T04:21:03;27.10;;;16.40;;
19253;SDS011;9761;50.926;5.330;2022-11-20T04:23:32;28.70;;;15.63;;
19253;SDS011;9761;50.926;5.330;2022-11-20T04:26:01;25.50;;;16.40;;
19253;SDS011;9761;50.926;5.330;2022-11-20T04:28:29;30.47;;;15.93;;
19253;SDS011;9761;50.926;5.330;2022-11-20T04:31:01;28.27;;;16.07;;
19253;SDS011;9761;50.926;5.330;2022-11-20T04:33:36;33.13;;;15.67;;
19253;SDS011;9761;50.926;5.330;2022-11-20T04:36:03;29.97;;;16.30;;
19253;SDS011;9761;50.926;5.330;2022-11-20T04:38:32;26.83;;;16.23;;
19253;SDS011;9761;50.926;5.330;2022-11-20T04:41:04;23.37;;;14.97;;
19253;SDS011;9761;50.926;5.330;2022-11-20T04:43:37;27.50;;;18.27;;
19253;SDS011;9761;50.926;5.330;2022-11-20T04:46:04;29.73;;;16.47;;
19253;SDS011;9761;50.926;5.330;2022-11-20T04:48:31;27.70;;;16.80;;
19253;SDS011;9761;50.926;5.330;2022-11-20T04:51:02;29.93;;;17.73;;
19253;SDS011;9761;50.926;5.330;2022-11-20T04:53:29;27.43;;;18.60;;
19253;SDS011;9761;50.926;5.330;2022-11-20T04:55:59;27.30;;;15.90;;
19253;SDS011;9761;50.926;5.330;2022-11-20T04:58:27;27.77;;;18.07;;
19253;SDS011;9761;50.926;5.330;2022-11-20T05:00:54;29.87;;;17.03;;
19253;SDS011;9761;50.926;5.330;2022-11-20T05:03:27;34.63;;;18.90;;
19253;SDS011;9761;50.926;5.330;2022-11-20T05:05:53;30.17;;;17.70;;
19253;SDS011;9761;50.926;5.330;2022-11-20T05:08:23;33.67;;;19.10;;
19253;SDS011;9761;50.926;5.330;2022-11-20T05:10:50;34.67;;;18.87;;
19253;SDS011;9761;50.926;5.330;2022-11-20T05:13:21;34.47;;;17.67;;
19253;SDS011;9761;50.926;5.330;2022-11-20T05:15:53;32.37;;;19.33;;
19253;SDS011;9761;50.926;5.330;2022-11-20T05:18:28;35.37;;;19.93;;
19253;SDS011;9761;50.926;5.330;2022-11-20T05:20:55;37.67;;;19.50;;
19253;SDS011;9761;50.926;5.330;2022-11-20T05:23:24;35.13;;;19.63;;
19253;SDS011;9761;50.926;5.330;2022-11-20T05:25:52;32.93;;;20.40;;
19253;SDS011;9761;50.926;5.330;2022-11-20T05:28:21;34.17;;;20.03;;
19253;SDS011;9761;50.926;5.330;2022-11-20T05:30:48;34.33;;;18.43;;
19253;SDS011;9761;50.926;5.330;2022-11-20T05:33:19;39.10;;;20.90;;
19253;SDS011;9761;50.926;5.330;2022-11-20T05:35:47;36.17;;;20.17;;
19253;SDS011;9761;50.926;5.330;2022-11-20T05:38:15;38.97;;;20.70;;
19253;SDS011;9761;50.926;5.330;2022-11-20T05:40:43;36.77;;;19.77;;
19253;SDS011;9761;50.926;5.330;2022-11-20T05:43:11;32.80;;;20.00;;
19253;SDS011;9761;50.926;5.330;2022-11-20T05:45:38;34.53;;;19.07;;
19253;SDS011;9761;50.926;5.330;2022-11-20T05:48:05;35.73;;;20.20;;
19253;SDS011;9761;50.926;5.330;2022-11-20T05:50:33;35.50;;;19.67;;
19253;SDS011;9761;50.926;5.330;2022-11-20T05:53:01;33.20;;;20.00;;
19253;SDS011;9761;50.926;5.330;2022-11-20T05:55:28;36.50;;;19.40;;
19253;SDS011;9761;50.926;5.330;2022-11-20T05:57:56;32.50;;;19.53;;
19253;SDS011;9761;50.926;5.330;2022-11-20T06:00:24;33.73;;;18.97;;
19253;SDS011;9761;50.926;5.330;2022-11-20T06:02:52;32.93;;;19.73;;
19253;SDS011;9761;50.926;5.330;2022-11-20T06:05:20;33.40;;;19.20;;
19253;SDS011;9761;50.926;5.330;2022-11-20T06:07:47;37.93;;;20.57;;
19253;SDS011;9761;50.926;5.330;2022-11-20T06:10:14;36.30;;;19.70;;
19253;SDS011;9761;50.926;5.330;2022-11-20T06:12:41;33.37;;;18.73;;
19253;SDS011;9761;50.926;5.330;2022-11-20T06:15:10;34.17;;;20.30;;
19253;SDS011;9761;50.926;5.330;2022-11-20T06:17:39;32.10;;;19.93;;
19253;SDS011;9761;50.926;5.330;2022-11-20T06:20:08;34.03;;;19.13;;
19253;SDS011;9761;50.926;5.330;2022-11-20T06:22:36;36.70;;;20.20;;
19253;SDS011;9761;50.926;5.330;2022-11-20T06:25:04;35.30;;;20.77;;
19253;SDS011;9761;50.926;5.330;2022-11-20T06:27:31;36.40;;;21.03;;
19253;SDS011;9761;50.926;5.330;2022-11-20T06:30:00;36.47;;;21.10;;
19253;SDS011;9761;50.926;5.330;2022-11-20T06:32:29;37.67;;;21.23;;
19253;SDS011;9761;50.926;5.330;2022-11-20T06:34:57;36.03;;;19.87;;
19253;SDS011;9761;50.926;5.330;2022-11-20T06:37:24;35.13;;;19.87;;
19253;SDS011;9761;50.926;5.330;2022-11-20T06:39:51;39.03;;;20.97;;
19253;SDS011;9761;50.926;5.330;2022-11-20T06:42:19;34.10;;;20.70;;
19253;SDS011;9761;50.926;5.330;2022-11-20T06:44:48;38.43;;;20.57;;
19253;SDS011;9761;50.926;5.330;2022-11-20T06:47:15;37.30;;;19.70;;
19253;SDS011;9761;50.926;5.330;2022-11-20T06:49:43;36.77;;;21.27;;
19253;SDS011;9761;50.926;5.330;2022-11-20T06:52:10;42.73;;;21.80;;
19253;SDS011;9761;50.926;5.330;2022-11-20T06:54:37;41.63;;;21.33;;
19253;SDS011;9761;50.926;5.330;2022-11-20T06:57:04;46.10;;;21.23;;
19253;SDS011;9761;50.926;5.330;2022-11-20T06:59:31;35.07;;;20.33;;
19253;SDS011;9761;50.926;5.330;2022-11-20T07:01:58;39.43;;;20.90;;
19253;SDS011;9761;50.926;5.330;2022-11-20T07:04:25;40.03;;;22.03;;
19253;SDS011;9761;50.926;5.330;2022-11-20T07:06:53;37.43;;;20.73;;
19253;SDS011;9761;50.926;5.330;2022-11-20T07:09:20;41.63;;;20.17;;
19253;SDS011;9761;50.926;5.330;2022-11-20T07:11:48;38.73;;;22.10;;
19253;SDS011;9761;50.926;5.330;2022-11-20T07:14:16;40.53;;;20.43;;
19253;SDS011;9761;50.926;5.330;2022-11-20T07:16:45;39.57;;;21.40;;
19253;SDS011;9761;50.926;5.330;2022-11-20T07:19:12;42.97;;;21.23;;
19253;SDS011;9761;50.926;5.330;2022-11-20T07:21:41;35.27;;;20.50;;
19253;SDS011;9761;50.926;5.330;2022-11-20T07:24:09;37.87;;;20.50;;
19253;SDS011;9761;50.926;5.330;2022-11-20T07:26:36;33.73;;;20.83;;
19253;SDS011;9761;50.926;5.330;2022-11-20T07:29:03;33.87;;;19.27;;
19253;SDS011;9761;50.926;5.330;2022-11-20T07:31:30;35.03;;;19.53;;
19253;SDS011;9761;50.926;5.330;2022-11-20T07:33:58;32.70;;;19.03;;
19253;SDS011;9761;50.926;5.330;2022-11-20T07:36:25;31.27;;;18.63;;
19253;SDS011;9761;50.926;5.330;2022-11-20T07:38:52;40.23;;;20.70;;
19253;SDS011;9761;50.926;5.330;2022-11-20T07:41:22;34.37;;;19.70;;
19253;SDS011;9761;50.926;5.330;2022-11-20T07:43:49;31.87;;;18.37;;
19253;SDS011;9761;50.926;5.330;2022-11-20T07:46:16;37.50;;;19.33;;
19253;SDS011;9761;50.926;5.330;2022-11-20T07:48:43;36.03;;;21.00;;
19253;SDS011;9761;50.926;5.330;2022-11-20T07:51:10;33.30;;;19.17;;
19253;SDS011;9761;50.926;5.330;2022-11-20T07:53:38;36.10;;;20.33;;
19253;SDS011;9761;50.926;5.330;2022-11-20T07:56:07;38.27;;;20.83;;
19253;SDS011;9761;50.926;5.330;2022-11-20T07:58:36;34.87;;;19.87;;
19253;SDS011;9761;50.926;5.330;2022-11-20T08:01:03;32.07;;;17.90;;
19253;SDS011;9761;50.926;5.330;2022-11-20T08:03:34;30.87;;;18.67;;
19253;SDS011;9761;50.926;5.330;2022-11-20T08:06:03;32.83;;;18.37;;
19253;SDS011;9761;50.926;5.330;2022-11-20T08:08:31;36.27;;;18.63;;
19253;SDS011;9761;50.926;5.330;2022-11-20T08:11:00;37.07;;;20.73;;
19253;SDS011;9761;50.926;5.330;2022-11-20T08:13:43;36.93;;;20.73;;
19253;SDS011;9761;50.926;5.330;2022-11-20T08:16:28;35.40;;;21.30;;
19253;SDS011;9761;50.926;5.330;2022-11-20T08:18:55;38.43;;;21.03;;
19253;SDS011;9761;50.926;5.330;2022-11-20T08:21:22;36.50;;;20.47;;
19253;SDS011;9761;50.926;5.330;2022-11-20T08:23:49;31.97;;;19.30;;
19253;SDS011;9761;50.926;5.330;2022-11-20T08:26:17;34.27;;;20.57;;
19253;SDS011;9761;50.926;5.330;2022-11-20T08:28:46;33.07;;;20.53;;
19253;SDS011;9761;50.926;5.330;2022-11-20T08:31:13;37.50;;;21.73;;
19253;SDS011;9761;50.926;5.330;2022-11-20T08:33:40;36.67;;;20.63;;
19253;SDS011;9761;50.926;5.330;2022-11-20T08:36:07;36.47;;;21.23;;
19253;SDS011;9761;50.926;5.330;2022-11-20T08:38:36;38.80;;;20.73;;
19253;SDS011;9761;50.926;5.330;2022-11-20T08:41:06;40.93;;;21.17;;
19253;SDS011;9761;50.926;5.330;2022-11-20T08:43:54;43.50;;;21.30;;
19253;SDS011;9761;50.926;5.330;2022-11-20T08:46:24;36.57;;;20.10;;
19253;SDS011;9761;50.926;5.330;2022-11-20T08:48:52;38.30;;;19.90;;
19253;SDS011;9761;50.926;5.330;2022-11-20T08:51:20;35.67;;;20.67;;
19253;SDS011;9761;50.926;5.330;2022-11-20T08:53:47;38.27;;;19.40;;
19253;SDS011;9761;50.926;5.330;2022-11-20T08:56:14;37.57;;;19.63;;
19253;SDS011;9761;50.926;5.330;2022-11-20T08:58:42;38.40;;;20.87;;
19253;SDS011;9761;50.926;5.330;2022-11-20T09:01:11;40.97;;;22.53;;
19253;SDS011;9761;50.926;5.330;2022-11-20T09:03:38;37.03;;;21.47;;
19253;SDS011;9761;50.926;5.330;2022-11-20T09:06:06;35.77;;;20.33;;
19253;SDS011;9761;50.926;5.330;2022-11-20T09:08:35;32.13;;;20.37;;
19253;SDS011;9761;50.926;5.330;2022-11-20T09:11:05;36.37;;;19.97;;
19253;SDS011;9761;50.926;5.330;2022-11-20T09:13:33;36.90;;;20.47;;
19253;SDS011;9761;50.926;5.330;2022-11-20T09:16:03;33.67;;;20.20;;
19253;SDS011;9761;50.926;5.330;2022-11-20T09:18:33;32.50;;;19.00;;
19253;SDS011;9761;50.926;5.330;2022-11-20T09:21:03;39.53;;;20.40;;
19253;SDS011;9761;50.926;5.330;2022-11-20T09:23:32;41.23;;;19.90;;
19253;SDS011;9761;50.926;5.330;2022-11-20T09:26:03;35.43;;;19.30;;
19253;SDS011;9761;50.926;5.330;2022-11-20T09:28:30;35.50;;;20.70;;
19253;SDS011;9761;50.926;5.330;2022-11-20T09:30:58;36.33;;;19.63;;
19253;SDS011;9761;50.926;5.330;2022-11-20T09:33:26;34.27;;;19.10;;
19253;SDS011;9761;50.926;5.330;2022-11-20T09:35:54;33.17;;;20.43;;
19253;SDS011;9761;50.926;5.330;2022-11-20T09:38:23;37.43;;;20.23;;
19253;SDS011;9761;50.926;5.330;2022-11-20T09:40:52;35.73;;;18.93;;
19253;SDS011;9761;50.926;5.330;2022-11-20T09:43:26;36.63;;;19.47;;
19253;SDS011;9761;50.926;5.330;2022-11-20T09:46:07;35.33;;;18.80;;
19253;SDS011;9761;50.926;5.330;2022-11-20T09:48:47;36.87;;;18.97;;
19253;SDS011;9761;50.926;5.330;2022-11-20T09:51:28;35.37;;;20.20;;
19253;SDS011;9761;50.926;5.330;2022-11-20T09:54:06;37.30;;;19.30;;
19253;SDS011;9761;50.926;5.330;2022-11-20T09:56:42;41.10;;;19.83;;
19253;SDS011;9761;50.926;5.330;2022-11-20T09:59:19;39.47;;;20.37;;
19253;SDS011;9761;50.926;5.330;2022-11-20T10:01:59;41.37;;;20.83;;
19253;SDS011;9761;50.926;5.330;2022-11-20T10:04:29;41.37;;;21.70;;
19253;SDS011;9761;50.926;5.330;2022-11-20T10:07:03;44.00;;;20.63;;
19253;SDS011;9761;50.926;5.330;2022-11-20T10:09:35;37.07;;;20.37;;
19253;SDS011;9761;50.926;5.330;2022-11-20T10:12:11;44.23;;;20.70;;
19253;SDS011;9761;50.926;5.330;2022-11-20T10:14:49;43.17;;;21.90;;
19253;SDS011;9761;50.926;5.330;2022-11-20T10:17:33;43.83;;;21.30;;
19253;SDS011;9761;50.926;5.330;2022-11-20T10:20:16;47.30;;;21.10;;
19253;SDS011;9761;50.926;5.330;2022-11-20T10:23:09;42.73;;;20.73;;
19253;SDS011;9761;50.926;5.330;2022-11-20T10:25:59;43.67;;;20.67;;
19253;SDS011;9761;50.926;5.330;2022-11-20T10:28:46;39.43;;;21.27;;
19253;SDS011;9761;50.926;5.330;2022-11-20T10:31:26;38.00;;;19.70;;
19253;SDS011;9761;50.926;5.330;2022-11-20T10:33:59;41.87;;;21.27;;
19253;SDS011;9761;50.926;5.330;2022-11-20T10:36:30;43.20;;;21.27;;
19253;SDS011;9761;50.926;5.330;2022-11-20T10:39:05;48.43;;;21.60;;
19253;SDS011;9761;50.926;5.330;2022-11-20T10:41:41;45.83;;;21.30;;
19253;SDS011;9761;50.926;5.330;2022-11-20T10:44:12;40.20;;;19.83;;
19253;SDS011;9761;50.926;5.330;2022-11-20T10:47:09;39.30;;;20.60;;
19253;SDS011;9761;50.926;5.330;2022-11-20T10:49:40;46.67;;;21.60;;
19253;SDS011;9761;50.926;5.330;2022-11-20T10:52:09;42.60;;;21.37;;
19253;SDS011;9761;50.926;5.330;2022-11-20T10:54:46;43.33;;;22.37;;
19253;SDS011;9761;50.926;5.330;2022-11-20T10:57:26;41.57;;;20.80;;
19253;SDS011;9761;50.926;5.330;2022-11-20T11:00:03;46.50;;;22.03;;
19253;SDS011;9761;50.926;5.330;2022-11-20T11:02:39;42.67;;;21.83;;
19253;SDS011;9761;50.926;5.330;2022-11-20T11:05:11;48.03;;;22.70;;
19253;SDS011;9761;50.926;5.330;2022-11-20T11:07:48;41.83;;;21.57;;
19253;SDS011;9761;50.926;5.330;2022-11-20T11:10:20;46.00;;;21.87;;
19253;SDS011;9761;50.926;5.330;2022-11-20T11:12:53;47.43;;;23.13;;
19253;SDS011;9761;50.926;5.330;2022-11-20T11:15:27;49.27;;;21.33;;
19253;SDS011;9761;50.926;5.330;2022-11-20T11:17:57;40.23;;;19.73;;
19253;SDS011;9761;50.926;5.330;2022-11-20T11:20:24;44.03;;;21.30;;
19253;SDS011;9761;50.926;5.330;2022-11-20T11:22:52;43.03;;;19.93;;
19253;SDS011;9761;50.926;5.330;2022-11-20T11:25:24;36.20;;;20.20;;
19253;SDS011;9761;50.926;5.330;2022-11-20T11:27:55;40.63;;;21.80;;
19253;SDS011;9761;50.926;5.330;2022-11-20T11:30:26;42.03;;;19.80;;
19253;SDS011;9761;50.926;5.330;2022-11-20T11:33:04;39.37;;;20.47;;
19253;SDS011;9761;50.926;5.330;2022-11-20T11:35:38;40.00;;;19.87;;
19253;SDS011;9761;50.926;5.330;2022-11-20T11:38:11;38.70;;;20.50;;
19253;SDS011;9761;50.926;5.330;2022-11-20T11:40:43;38.77;;;19.13;;
19253;SDS011;9761;50.926;5.330;2022-11-20T11:43:17;32.27;;;17.03;;
19253;SDS011;9761;50.926;5.330;2022-11-20T11:46:05;33.47;;;18.87;;
19253;SDS011;9761;50.926;5.330;2022-11-20T11:49:00;33.90;;;18.13;;
19253;SDS011;9761;50.926;5.330;2022-11-20T11:51:29;32.97;;;19.07;;
19253;SDS011;9761;50.926;5.330;2022-11-20T11:54:05;35.43;;;18.63;;
19253;SDS011;9761;50.926;5.330;2022-11-20T11:56:42;31.70;;;18.37;;
19253;SDS011;9761;50.926;5.330;2022-11-20T11:59:12;37.47;;;19.47;;
19253;SDS011;9761;50.926;5.330;2022-11-20T12:01:50;31.43;;;19.83;;
19253;SDS011;9761;50.926;5.330;2022-11-20T12:04:25;33.50;;;19.83;;
19253;SDS011;9761;50.926;5.330;2022-11-20T12:07:08;28.80;;;16.10;;
19253;SDS011;9761;50.926;5.330;2022-11-20T12:09:43;25.27;;;15.70;;
19253;SDS011;9761;50.926;5.330;2022-11-20T12:12:20;28.53;;;16.37;;
19253;SDS011;9761;50.926;5.330;2022-11-20T12:14:53;26.53;;;16.43;;
19253;SDS011;9761;50.926;5.330;2022-11-20T12:17:23;21.90;;;12.93;;
19253;SDS011;9761;50.926;5.330;2022-11-20T12:19:50;22.53;;;13.77;;
19253;SDS011;9761;50.926;5.330;2022-11-20T12:22:20;22.10;;;13.17;;
19253;SDS011;9761;50.926;5.330;2022-11-20T12:24:57;19.97;;;11.77;;
19253;SDS011;9761;50.926;5.330;2022-11-20T12:30:54;11.00;;;6.63;;
19253;SDS011;9761;50.926;5.330;2022-11-20T12:33:44;7.17;;;5.07;;
19253;SDS011;9761;50.926;5.330;2022-11-20T12:36:32;8.67;;;4.73;;
19253;SDS011;9761;50.926;5.330;2022-11-20T12:39:17;8.03;;;5.17;;
19253;SDS011;9761;50.926;5.330;2022-11-20T12:42:01;9.80;;;3.50;;
19253;SDS011;9761;50.926;5.330;2022-11-20T12:48:21;5.50;;;3.13;;
19253;SDS011;9761;50.926;5.330;2022-11-20T12:51:03;4.23;;;2.57;;
19253;SDS011;9761;50.926;5.330;2022-11-20T12:53:50;5.53;;;2.63;;
19253;SDS011;9761;50.926;5.330;2022-11-20T12:56:32;5.03;;;2.77;;
19253;SDS011;9761;50.926;5.330;2022-11-20T12:59:12;6.47;;;2.30;;
19253;SDS011;9761;50.926;5.330;2022-11-20T13:01:49;4.47;;;2.17;;
19253;SDS011;9761;50.926;5.330;2022-11-20T13:04:27;5.90;;;2.20;;
19253;SDS011;9761;50.926;5.330;2022-11-20T13:07:17;3.97;;;1.97;;
19253;SDS011;9761;50.926;5.330;2022-11-20T13:09:46;3.17;;;1.70;;
19253;SDS011;9761;50.926;5.330;2022-11-20T13:12:16;2.10;;;1.77;;
19253;SDS011;9761;50.926;5.330;2022-11-20T13:14:52;3.63;;;1.40;;
19253;SDS011;9761;50.926;5.330;2022-11-20T13:17:28;2.90;;;1.83;;
19253;SDS011;9761;50.926;5.330;2022-11-20T13:20:06;1.27;;;1.10;;
19253;SDS011;9761;50.926;5.330;2022-11-20T13:22:43;5.87;;;2.00;;
19253;SDS011;9761;50.926;5.330;2022-11-20T13:25:23;1.93;;;1.43;;
19253;SDS011;9761;50.926;5.330;2022-11-20T13:27:51;4.80;;;1.53;;
19253;SDS011;9761;50.926;5.330;2022-11-20T13:30:20;3.07;;;1.33;;
19253;SDS011;9761;50.926;5.330;2022-11-20T13:32:52;2.03;;;1.30;;
19253;SDS011;9761;50.926;5.330;2022-11-20T13:35:32;4.40;;;1.80;;
19253;SDS011;9761;50.926;5.330;2022-11-20T13:38:02;3.60;;;1.70;;
19253;SDS011;9761;50.926;5.330;2022-11-20T13:40:32;4.40;;;2.07;;
19253;SDS011;9761;50.926;5.330;2022-11-20T13:43:15;2.57;;;1.60;;
19253;SDS011;9761;50.926;5.330;2022-11-20T13:45:59;4.57;;;1.97;;
19253;SDS011;9761;50.926;5.330;2022-11-20T13:48:30;5.83;;;2.07;;
19253;SDS011;9761;50.926;5.330;2022-11-20T13:51:06;4.20;;;1.63;;
19253;SDS011;9761;50.926;5.330;2022-11-20T13:57:03;4.70;;;2.20;;
19253;SDS011;9761;50.926;5.330;2022-11-20T13:59:43;3.63;;;1.93;;
19253;SDS011;9761;50.926;5.330;2022-11-20T14:02:20;6.97;;;2.10;;
19253;SDS011;9761;50.926;5.330;2022-11-20T14:04:49;7.30;;;3.60;;
19253;SDS011;9761;50.926;5.330;2022-11-20T14:07:23;6.67;;;2.53;;
19253;SDS011;9761;50.926;5.330;2022-11-20T14:09:58;5.23;;;2.60;;
19253;SDS011;9761;50.926;5.330;2022-11-20T14:12:28;6.43;;;2.53;;
19253;SDS011;9761;50.926;5.330;2022-11-20T14:14:56;6.27;;;2.10;;
19253;SDS011;9761;50.926;5.330;2022-11-20T14:17:24;2.60;;;1.87;;
19253;SDS011;9761;50.926;5.330;2022-11-20T14:20:05;4.53;;;2.87;;
19253;SDS011;9761;50.926;5.330;2022-11-20T14:22:39;3.70;;;2.10;;
19253;SDS011;9761;50.926;5.330;2022-11-20T14:25:18;5.10;;;2.80;;
19253;SDS011;9761;50.926;5.330;2022-11-20T14:27:50;3.37;;;2.70;;
19253;SDS011;9761;50.926;5.330;2022-11-20T14:30:21;5.53;;;2.10;;
19253;SDS011;9761;50.926;5.330;2022-11-20T14:32:49;9.23;;;2.50;;
19253;SDS011;9761;50.926;5.330;2022-11-20T14:35:20;3.13;;;2.17;;
19253;SDS011;9761;50.926;5.330;2022-11-20T14:37:52;6.67;;;2.10;;
19253;SDS011;9761;50.926;5.330;2022-11-20T14:40:25;3.90;;;2.37;;
19253;SDS011;9761;50.926;5.330;2022-11-20T14:42:55;5.73;;;2.30;;
19253;SDS011;9761;50.926;5.330;2022-11-20T14:45:22;6.93;;;2.70;;
19253;SDS011;9761;50.926;5.330;2022-11-20T14:47:52;5.57;;;2.27;;
19253;SDS011;9761;50.926;5.330;2022-11-20T14:50:22;3.83;;;2.37;;
19253;SDS011;9761;50.926;5.330;2022-11-20T14:52:53;4.33;;;2.73;;
19253;SDS011;9761;50.926;5.330;2022-11-20T14:55:26;5.70;;;2.97;;
19253;SDS011;9761;50.926;5.330;2022-11-20T14:57:56;7.17;;;3.47;;
19253;SDS011;9761;50.926;5.330;2022-11-20T15:00:25;10.00;;;4.87;;
19253;SDS011;9761;50.926;5.330;2022-11-20T15:02:53;11.30;;;4.30;;
19253;SDS011;9761;50.926;5.330;2022-11-20T15:05:22;7.07;;;3.53;;
19253;SDS011;9761;50.926;5.330;2022-11-20T15:07:51;6.07;;;2.93;;
19253;SDS011;9761;50.926;5.330;2022-11-20T15:10:32;6.30;;;3.43;;
19253;SDS011;9761;50.926;5.330;2022-11-20T15:13:01;6.17;;;2.97;;
19253;SDS011;9761;50.926;5.330;2022-11-20T15:15:34;6.57;;;3.70;;